createdAt,value
2022-09-28T00:01:25.504Z,99141.28
2022-09-28T00:04:28.471Z,99143.44
2022-09-28T00:07:31.037Z,99141.94
2022-09-28T00:10:33.746Z,99139.16
2022-09-28T00:13:36.427Z,99148.78
2022-09-28T00:16:44.429Z,99121.41
2022-09-28T00:19:50.521Z,99122.44
2022-09-28T00:22:53.243Z,99117.97
2022-09-28T00:25:55.798Z,99122.44
2022-09-28T00:29:00.723Z,99123.72
2022-09-28T00:32:07.100Z,99116.78
2022-09-28T00:35:10.079Z,99125.28
2022-09-28T00:38:12.639Z,99128.16
2022-09-28T00:41:15.964Z,99124.63
2022-09-28T00:44:24.649Z,99131.09
2022-09-28T00:47:50.951Z,99144.25
2022-09-28T00:50:53.672Z,99134.44
2022-09-28T00:53:57.247Z,99136.19
2022-09-28T00:57:01.197Z,99139.16
2022-09-28T01:00:06.206Z,99136.28
2022-09-28T01:03:09.610Z,99136.12
2022-09-28T01:06:23.377Z,99136.28
2022-09-28T01:09:27.653Z,99135.19
2022-09-28T01:12:30.525Z,99141.69
2022-09-28T01:15:42.961Z,99139.78
2022-09-28T01:18:52.590Z,99140.19
2022-09-28T01:22:04.482Z,99140.19
2022-09-28T01:25:21.432Z,99143.16
2022-09-28T01:28:28.033Z,99140.66
2022-09-28T01:31:35.156Z,99147.78
2022-09-28T01:35:00.343Z,99150.75
2022-09-28T01:38:11.469Z,99160.00
2022-09-28T01:41:17.749Z,99155.28
2022-09-28T01:44:23.167Z,99154.06
2022-09-28T01:47:28.779Z,99159.62
2022-09-28T01:50:38.056Z,99162.97
2022-09-28T01:53:46.532Z,99168.97
2022-09-28T01:57:00.500Z,99180.34
2022-09-28T02:00:13.171Z,99170.91
2022-09-28T02:03:32.541Z,99166.66
2022-09-28T02:06:49.004Z,99168.41
2022-09-28T02:10:00.729Z,99161.13
2022-09-28T02:13:15.296Z,99162.22
2022-09-28T02:16:41.947Z,99166.09
2022-09-28T02:19:45.084Z,99154.72
2022-09-28T02:22:53.603Z,99160.53
2022-09-28T02:26:02.203Z,99160.75
2022-09-28T02:29:04.744Z,99162.03
2022-09-28T02:32:07.495Z,99164.44
2022-09-28T02:35:13.634Z,99160.66
2022-09-28T02:38:16.482Z,99160.91
2022-09-28T02:41:37.356Z,99167.78
2022-09-28T02:44:48.817Z,99165.72
2022-09-28T02:48:24.052Z,99164.19
2022-09-28T02:52:02.769Z,99168.06
2022-09-28T02:55:17.389Z,99161.13
2022-09-28T02:58:26.620Z,99167.56
2022-09-28T03:01:32.065Z,99164.72
2022-09-28T03:04:58.096Z,99170.81
2022-09-28T03:08:06.857Z,99188.13
2022-09-28T03:11:24.871Z,99193.69
2022-09-28T03:14:27.445Z,99197.75
2022-09-28T03:17:30.375Z,99202.84
2022-09-28T03:20:33.611Z,99201.19
2022-09-28T03:23:36.941Z,99201.91
2022-09-28T03:26:39.743Z,99200.06
2022-09-28T03:29:42.694Z,99202.59
2022-09-28T03:32:45.392Z,99197.84
2022-09-28T03:35:50.396Z,99199.41
2022-09-28T03:38:56.123Z,99206.16
2022-09-28T03:42:02.210Z,99202.16
2022-09-28T03:45:06.209Z,99199.69
2022-09-28T03:48:09.114Z,99197.62
2022-09-28T03:51:12.713Z,99200.03
2022-09-28T03:54:15.555Z,99199.22
2022-09-28T03:57:17.991Z,99207.47
2022-09-28T04:00:21.060Z,99199.75
2022-09-28T04:03:23.859Z,99210.53
2022-09-28T04:06:26.542Z,99196.47
2022-09-28T04:09:31.127Z,99203.31
2022-09-28T04:12:33.612Z,99208.28
2022-09-28T04:15:38.456Z,99201.34
2022-09-28T04:18:40.956Z,99200.87
2022-09-28T04:21:47.052Z,99207.94
2022-09-28T04:24:49.653Z,99195.53
2022-09-28T04:28:12.264Z,99206.16
2022-09-28T04:31:17.336Z,99202.28
2022-09-28T04:34:22.314Z,99197.22
2022-09-28T04:37:24.831Z,99199.75
2022-09-28T04:40:27.747Z,99202.34
2022-09-28T04:43:31.300Z,99202.63
2022-09-28T04:46:35.499Z,99201.16
2022-09-28T04:49:39.433Z,99203.56
2022-09-28T04:52:42.578Z,99203.00
2022-09-28T04:55:45.268Z,99201.25
2022-09-28T04:58:52.570Z,99195.78
2022-09-28T05:01:55.602Z,99206.63
2022-09-28T05:04:59.387Z,99203.28
2022-09-28T05:08:01.896Z,99201.88
2022-09-28T05:11:07.460Z,99210.94
2022-09-28T05:14:12.023Z,99213.50
2022-09-28T05:17:15.374Z,99215.63
2022-09-28T05:20:19.535Z,99212.38
2022-09-28T05:23:22.303Z,99215.59
2022-09-28T05:26:24.960Z,99218.47
2022-09-28T05:29:31.897Z,99217.34
2022-09-28T05:32:41.831Z,99208.41
2022-09-28T05:35:49.769Z,99220.84
2022-09-28T05:38:55.103Z,99211.62
2022-09-28T05:41:58.059Z,99222.87
2022-09-28T05:45:00.569Z,99221.63
2022-09-28T05:48:03.448Z,99220.91
2022-09-28T05:51:06.337Z,99228.25
2022-09-28T05:54:09.156Z,99222.87
2022-09-28T05:57:12.529Z,99219.81
2022-09-28T06:00:21.057Z,99219.88
2022-09-28T06:03:25.259Z,99220.97
2022-09-28T06:06:27.862Z,99214.00
2022-09-28T06:09:31.996Z,99209.47
2022-09-28T06:12:35.522Z,99199.75
2022-09-28T06:15:42.484Z,99192.84
2022-09-28T06:18:46.188Z,99203.19
2022-09-28T06:21:49.413Z,99204.62
2022-09-28T06:24:52.090Z,99201.75
2022-09-28T06:27:55.710Z,99197.50
2022-09-28T06:31:01.963Z,99202.81
2022-09-28T06:34:05.259Z,99207.72
2022-09-28T06:37:10.799Z,99205.53
2022-09-28T06:40:14.062Z,99205.41
2022-09-28T06:43:16.641Z,99201.47
2022-09-28T06:46:24.380Z,99201.88
2022-09-28T06:49:30.276Z,99205.66
2022-09-28T06:52:34.587Z,99206.91
2022-09-28T06:55:50.124Z,99212.91
2022-09-28T06:58:53.148Z,99219.00
2022-09-28T07:01:55.862Z,99220.19
2022-09-28T07:05:00.275Z,99219.34
2022-09-28T07:08:06.618Z,99216.81
2022-09-28T07:11:12.364Z,99225.06
2022-09-28T07:14:27.451Z,99223.53
2022-09-28T07:17:51.024Z,99221.50
2022-09-28T07:20:58.342Z,99211.25
2022-09-28T07:24:01.476Z,99212.72
2022-09-28T07:27:08.845Z,99217.22
2022-09-28T07:30:12.104Z,99210.97
2022-09-28T07:33:17.185Z,99208.59
2022-09-28T07:36:20.885Z,99215.37
2022-09-28T07:39:24.884Z,99208.81
2022-09-28T07:42:30.764Z,99214.22
2022-09-28T07:45:36.117Z,99215.63
2022-09-28T07:48:43.565Z,99199.59
2022-09-28T07:51:46.538Z,99197.06
2022-09-28T07:54:52.151Z,99210.97
2022-09-28T07:58:01.120Z,99210.66
2022-09-28T08:01:07.334Z,99210.13
2022-09-28T08:04:10.289Z,99206.81
2022-09-28T08:07:14.202Z,99211.31
2022-09-28T08:10:17.363Z,99211.59
2022-09-28T08:13:23.463Z,99214.75
2022-09-28T08:16:30.233Z,99214.25
2022-09-28T08:19:52.512Z,99215.03
2022-09-28T08:22:56.904Z,99208.91
2022-09-28T08:25:59.444Z,99198.69
2022-09-28T08:29:03.142Z,99192.59
2022-09-28T08:32:10.653Z,99186.16
2022-09-28T08:35:17.950Z,99175.41
2022-09-28T08:38:20.832Z,99170.34
2022-09-28T08:41:39.107Z,99168.06
2022-09-28T08:44:46.364Z,99169.81
2022-09-28T08:48:22.025Z,99179.34
2022-09-28T08:51:35.843Z,99187.75
2022-09-28T08:55:00.541Z,99184.84
2022-09-28T08:58:20.516Z,99188.94
2022-09-28T09:01:27.666Z,99193.50
2022-09-28T09:04:33.665Z,99194.53
2022-09-28T09:08:01.867Z,99185.06
2022-09-28T09:11:24.129Z,99183.47
2022-09-28T09:15:04.022Z,99184.63
2022-09-28T09:18:28.413Z,99177.69
2022-09-28T09:21:44.426Z,99189.34
2022-09-28T09:24:55.150Z,99186.53
2022-09-28T09:28:16.230Z,99183.16
2022-09-28T09:31:50.612Z,99184.87
2022-09-28T09:35:09.226Z,99183.56
2022-09-28T09:38:19.288Z,99171.78
2022-09-28T09:41:57.473Z,99163.19
2022-09-28T09:45:40.978Z,99171.19
2022-09-28T09:48:59.100Z,99178.31
2022-09-28T09:52:11.320Z,99175.69
2022-09-28T09:55:29.676Z,99169.63
2022-09-28T09:58:40.261Z,99175.19
2022-09-28T10:01:43.299Z,99178.31
2022-09-28T10:04:50.123Z,99179.31
2022-09-28T10:08:18.185Z,99184.63
2022-09-28T10:11:29.993Z,99184.38
2022-09-28T10:14:32.590Z,99180.13
2022-09-28T10:17:37.494Z,99176.97
2022-09-28T10:20:45.053Z,99180.66
2022-09-28T10:23:55.142Z,99191.94
2022-09-28T10:27:05.174Z,99185.00
2022-09-28T10:30:23.285Z,99181.19
2022-09-28T10:33:34.128Z,99183.00
2022-09-28T10:36:52.829Z,99181.25
2022-09-28T10:39:56.267Z,99183.72
2022-09-28T10:43:06.530Z,99190.91
2022-09-28T10:46:12.955Z,99184.00
2022-09-28T10:49:18.113Z,99190.50
2022-09-28T10:52:35.405Z,99184.84
2022-09-28T10:55:41.944Z,99180.97
2022-09-28T10:58:45.689Z,99180.41
2022-09-28T11:01:56.937Z,99171.00
2022-09-28T11:05:02.657Z,99163.44
2022-09-28T11:08:08.025Z,99161.09
2022-09-28T11:11:14.519Z,99159.16
2022-09-28T11:14:42.125Z,99158.19
2022-09-28T11:17:46.311Z,99161.94
2022-09-28T11:20:49.586Z,99155.16
2022-09-28T11:24:06.446Z,99146.06
2022-09-28T11:27:20.627Z,99149.19
2022-09-28T11:30:48.421Z,99134.53
2022-09-28T11:34:31.111Z,99133.84
2022-09-28T11:37:47.209Z,99131.19
2022-09-28T11:41:22.738Z,99135.75
2022-09-28T11:44:32.564Z,99140.84
2022-09-28T11:48:02.688Z,99141.06
2022-09-28T11:51:15.442Z,99139.16
2022-09-28T11:54:33.642Z,99138.44
2022-09-28T11:57:40.752Z,99133.78
2022-09-28T12:00:50.870Z,99125.37
2022-09-28T12:04:02.834Z,99123.81
2022-09-28T12:07:22.347Z,99114.03
2022-09-28T12:10:47.523Z,99116.06
2022-09-28T12:13:54.199Z,99101.13
2022-09-28T12:17:20.090Z,99106.56
2022-09-28T12:20:32.506Z,99096.88
2022-09-28T12:23:39.393Z,99091.66
2022-09-28T12:26:48.660Z,99092.56
2022-09-28T12:30:05.002Z,99096.06
2022-09-28T12:33:13.153Z,99093.75
2022-09-28T12:36:47.404Z,99090.09
2022-09-28T12:40:23.971Z,99082.56
2022-09-28T12:43:49.509Z,99068.75
2022-09-28T12:47:10.915Z,99063.75
2022-09-28T12:50:45.605Z,99066.28
2022-09-28T12:54:34.558Z,99059.91
2022-09-28T12:58:04.662Z,99066.72
2022-09-28T13:01:38.836Z,99055.37
2022-09-28T13:05:13.464Z,99059.81
2022-09-28T13:08:55.917Z,99070.91
2022-09-28T13:12:15.647Z,99057.09
2022-09-28T13:15:32.413Z,99064.09
2022-09-28T13:19:14.620Z,99056.09
2022-09-28T13:22:49.641Z,99055.44
2022-09-28T13:26:01.680Z,99064.19
2022-09-28T13:29:17.333Z,99050.06
2022-09-28T13:32:20.964Z,99056.56
2022-09-28T13:35:24.029Z,99067.44
2022-09-28T13:38:40.020Z,99062.31
2022-09-28T13:41:50.637Z,99051.56
2022-09-28T13:45:11.296Z,99053.56
2022-09-28T13:48:21.404Z,99057.88
2022-09-28T13:51:49.684Z,99047.69
2022-09-28T13:55:16.665Z,99046.97
2022-09-28T13:58:32.612Z,99044.81
2022-09-28T14:01:41.622Z,99046.81
2022-09-28T14:05:00.910Z,99048.41
2022-09-28T14:08:09.545Z,99052.25
2022-09-28T14:11:27.357Z,99043.63
2022-09-28T14:14:45.210Z,99039.63
2022-09-28T14:17:53.625Z,99045.88
2022-09-28T14:21:08.568Z,99051.59
2022-09-28T14:24:42.117Z,99045.44
2022-09-28T14:28:01.732Z,99043.84
2022-09-28T14:31:14.627Z,99040.91
2022-09-28T14:34:48.589Z,99045.78
2022-09-28T14:38:16.621Z,99033.75
2022-09-28T14:41:31.392Z,99040.13
2022-09-28T14:45:06.293Z,99031.59
2022-09-28T14:48:15.594Z,99032.44
2022-09-28T14:51:30.024Z,99041.41
2022-09-28T14:54:54.289Z,99032.53
2022-09-28T14:58:07.808Z,99027.75
2022-09-28T15:01:20.163Z,99024.34
2022-09-28T15:04:28.070Z,99023.03
2022-09-28T15:07:46.045Z,99024.00
2022-09-28T15:10:50.543Z,99020.22
2022-09-28T15:14:06.411Z,99017.25
2022-09-28T15:17:11.153Z,99013.00
2022-09-28T15:20:30.464Z,99016.28
2022-09-28T15:23:34.697Z,99012.41
2022-09-28T15:26:37.210Z,99016.34
2022-09-28T15:29:40.608Z,99009.06
2022-09-28T15:32:43.054Z,99003.78
2022-09-28T15:35:50.043Z,98998.22
2022-09-28T15:39:02.074Z,98994.22
2022-09-28T15:42:06.219Z,99000.53
2022-09-28T15:45:26.466Z,99008.91
2022-09-28T15:48:39.278Z,99005.19
2022-09-28T15:51:50.007Z,99017.56
2022-09-28T15:54:54.053Z,99023.75
2022-09-28T15:58:15.745Z,99025.75
2022-09-28T16:01:26.877Z,99031.88
2022-09-28T16:04:38.553Z,99028.03
2022-09-28T16:07:41.662Z,99019.81
2022-09-28T16:10:56.173Z,99010.31
2022-09-28T16:14:14.639Z,99022.19
2022-09-28T16:17:32.794Z,99022.28
2022-09-28T16:20:37.361Z,99021.62
2022-09-28T16:23:41.353Z,99023.13
2022-09-28T16:26:43.975Z,99019.78
2022-09-28T16:30:12.788Z,99019.22
2022-09-28T16:33:28.917Z,99016.31
2022-09-28T16:36:43.456Z,99018.81
2022-09-28T16:39:45.896Z,99023.91
2022-09-28T16:42:49.563Z,99019.06
2022-09-28T16:46:00.736Z,99016.97
2022-09-28T16:49:06.134Z,99018.63
2022-09-28T16:52:12.271Z,99019.03
2022-09-28T16:55:39.070Z,99011.72
2022-09-28T16:58:39.070Z,99015.03
2022-09-28T17:01:43.863Z,99019.16
2022-09-28T17:04:47.829Z,99023.84
2022-09-28T17:08:01.865Z,99021.88
2022-09-28T17:11:24.526Z,99027.13
2022-09-28T17:14:28.257Z,99034.84
2022-09-28T17:17:33.993Z,99026.94
2022-09-28T17:20:37.681Z,99027.53
2022-09-28T17:23:40.224Z,99026.25
2022-09-28T17:26:44.826Z,99029.00
2022-09-28T17:29:48.098Z,99024.09
2022-09-28T17:32:51.557Z,99028.22
2022-09-28T17:36:00.865Z,99033.31
2022-09-28T17:39:05.328Z,99033.69
2022-09-28T17:42:07.863Z,99030.88
2022-09-28T17:45:10.664Z,99034.00
2022-09-28T17:48:19.440Z,99031.59
2022-09-28T17:51:23.718Z,99038.53
2022-09-28T17:54:26.749Z,99042.63
2022-09-28T17:57:29.612Z,99043.63
2022-09-28T18:00:32.164Z,99044.19
2022-09-28T18:03:35.078Z,99049.34
2022-09-28T18:06:42.249Z,99050.63
2022-09-28T18:09:45.693Z,99056.31
2022-09-28T18:12:49.353Z,99061.50
2022-09-28T18:15:53.256Z,99058.06
2022-09-28T18:18:56.246Z,99059.81
2022-09-28T18:21:59.222Z,99057.47
2022-09-28T18:25:01.876Z,99066.19
2022-09-28T18:28:04.753Z,99066.53
2022-09-28T18:31:12.128Z,99064.97
2022-09-28T18:34:15.607Z,99067.91
2022-09-28T18:37:18.268Z,99068.03
2022-09-28T18:40:21.794Z,99078.41
2022-09-28T18:43:24.453Z,99069.38
2022-09-28T18:46:34.683Z,99072.81
2022-09-28T18:49:37.271Z,99077.28
2022-09-28T18:52:40.440Z,99082.50
2022-09-28T18:55:43.424Z,99080.88
2022-09-28T18:58:47.807Z,99090.88
2022-09-28T19:01:51.674Z,99088.69
2022-09-28T19:04:54.716Z,99075.69
2022-09-28T19:07:57.314Z,99079.84
2022-09-28T19:11:11.975Z,99080.91
2022-09-28T19:14:15.814Z,99083.16
2022-09-28T19:17:19.725Z,99084.00
2022-09-28T19:20:22.383Z,99086.53
2022-09-28T19:23:25.151Z,99086.53
2022-09-28T19:26:28.735Z,99084.75
2022-09-28T19:29:31.670Z,99083.19
2022-09-28T19:32:34.340Z,99087.37
2022-09-28T19:35:37.119Z,99086.53
2022-09-28T19:38:40.690Z,99081.53
2022-09-28T19:41:47.874Z,99083.81
2022-09-28T19:44:51.049Z,99080.41
2022-09-28T19:47:57.370Z,99086.44
2022-09-28T19:51:04.778Z,99080.91
2022-09-28T19:54:08.332Z,99080.91
2022-09-28T19:57:15.963Z,99080.91
2022-09-28T20:00:19.307Z,99081.94
2022-09-28T20:03:22.070Z,99073.44
2022-09-28T20:06:25.728Z,99069.75
2022-09-28T20:09:28.630Z,99074.47
2022-09-28T20:12:31.046Z,99067.50
2022-09-28T20:15:35.818Z,99068.22
2022-09-28T20:18:43.537Z,99070.00
2022-09-28T20:21:48.113Z,99073.28
2022-09-28T20:24:50.554Z,99067.38
2022-09-28T20:27:53.472Z,99059.47
2022-09-28T20:31:15.119Z,99067.16
2022-09-28T20:34:18.038Z,99065.91
2022-09-28T20:37:20.509Z,99060.28
2022-09-28T20:40:23.451Z,99065.91
2022-09-28T20:43:26.998Z,99055.09
2022-09-28T20:46:30.117Z,99054.50
2022-09-28T20:49:32.701Z,99054.06
2022-09-28T20:52:35.456Z,99054.38
2022-09-28T20:55:37.955Z,99059.59
2022-09-28T20:58:41.207Z,99056.16
2022-09-28T21:01:45.888Z,99052.81
2022-09-28T21:04:48.658Z,99057.28
2022-09-28T21:07:51.189Z,99057.63
2022-09-28T21:10:54.218Z,99049.09
2022-09-28T21:14:00.259Z,99045.34
2022-09-28T21:17:03.050Z,99037.56
2022-09-28T21:20:06.107Z,99025.25
2022-09-28T21:23:08.937Z,99039.09
2022-09-28T21:26:13.910Z,99034.22
2022-09-28T21:29:18.979Z,99023.72
2022-09-28T21:32:23.187Z,99025.78
2022-09-28T21:35:26.079Z,99019.13
2022-09-28T21:38:29.376Z,99020.69
2022-09-28T21:41:32.054Z,99030.59
2022-09-28T21:44:34.659Z,99025.59
2022-09-28T21:47:37.564Z,99031.63
2022-09-28T21:50:40.009Z,99030.59
2022-09-28T21:53:42.990Z,99026.91
2022-09-28T21:56:45.522Z,99027.66
2022-09-28T21:59:48.282Z,99034.69
2022-09-28T22:02:51.274Z,99031.16
2022-09-28T22:05:54.391Z,99031.03
2022-09-28T22:08:57.361Z,99033.75
2022-09-28T22:12:00.190Z,99026.69
2022-09-28T22:15:04.228Z,99042.03
2022-09-28T22:18:07.256Z,99035.06
2022-09-28T22:21:18.496Z,99025.59
2022-09-28T22:24:21.311Z,99028.31
2022-09-28T22:27:24.100Z,99028.22
2022-09-28T22:30:26.989Z,99028.22
2022-09-28T22:33:29.780Z,99024.66
2022-09-28T22:36:33.167Z,99020.41
2022-09-28T22:39:37.842Z,99020.06
2022-09-28T22:42:40.887Z,99018.44
2022-09-28T22:45:43.417Z,99019.25
2022-09-28T22:48:52.640Z,99010.72
2022-09-28T22:51:55.134Z,99009.47
2022-09-28T22:54:57.915Z,99011.31
2022-09-28T22:58:01.755Z,99008.97
2022-09-28T23:01:07.815Z,99015.31
2022-09-28T23:04:10.524Z,99027.50
2022-09-28T23:07:13.222Z,99029.72
2022-09-28T23:10:15.810Z,99024.63
2022-09-28T23:13:18.881Z,99019.41
2022-09-28T23:16:24.801Z,99020.50
2022-09-28T23:19:27.677Z,99024.28
2022-09-28T23:22:30.175Z,99018.47
2022-09-28T23:25:32.963Z,99014.09
2022-09-28T23:28:35.443Z,99016.81
2022-09-28T23:31:39.202Z,99021.06
2022-09-28T23:34:42.127Z,99018.25
2022-09-28T23:37:49.683Z,99011.75
2022-09-28T23:40:52.462Z,99009.78
2022-09-28T23:43:55.388Z,98999.50
2022-09-28T23:46:57.903Z,99008.84
2022-09-28T23:50:01.035Z,99010.72
2022-09-28T23:53:03.601Z,99016.66
2022-09-28T23:56:06.475Z,99020.91
2022-09-28T23:59:08.960Z,99027.66
